createdAt,value
2023-01-27T00:01:52.729Z,96996.28
2023-01-27T00:04:19.177Z,96995.94
2023-01-27T00:06:45.612Z,96990.97
2023-01-27T00:09:12.032Z,96994.78
2023-01-27T00:11:38.480Z,96998.78
2023-01-27T00:14:04.895Z,96989.81
2023-01-27T00:16:31.359Z,96985.66
2023-01-27T00:18:57.849Z,96988.16
2023-01-27T00:21:29.389Z,96991.44
2023-01-27T00:23:55.926Z,96982.50
2023-01-27T00:26:22.384Z,96984.97
2023-01-27T00:28:48.955Z,96984.00
2023-01-27T00:31:15.501Z,96980.47
2023-01-27T00:33:41.958Z,96978.84
2023-01-27T00:36:08.428Z,96975.50
2023-01-27T00:38:34.888Z,96987.28
2023-01-27T00:41:01.400Z,96984.97
2023-01-27T00:43:27.863Z,96983.16
2023-01-27T00:45:54.275Z,96977.00
2023-01-27T00:48:20.729Z,96981.34
2023-01-27T00:50:47.139Z,96977.69
2023-01-27T00:53:13.579Z,96969.72
2023-01-27T00:55:40.015Z,96973.19
2023-01-27T00:58:06.416Z,96976.66
2023-01-27T01:00:32.895Z,96968.88
2023-01-27T01:02:59.875Z,96961.75
2023-01-27T01:05:26.399Z,96964.41
2023-01-27T01:07:52.874Z,96963.56
2023-01-27T01:10:19.276Z,96963.72
2023-01-27T01:12:45.718Z,96963.56
2023-01-27T01:15:12.149Z,96961.91
2023-01-27T01:17:38.603Z,96955.75
2023-01-27T01:20:05.055Z,96967.53
2023-01-27T01:22:31.453Z,96963.25
2023-01-27T01:24:57.861Z,96958.09
2023-01-27T01:27:24.275Z,96954.25
2023-01-27T01:29:50.729Z,96957.75
2023-01-27T01:32:17.240Z,96956.91
2023-01-27T01:34:43.993Z,96959.91
2023-01-27T01:37:10.464Z,96948.13
2023-01-27T01:39:37.907Z,96946.13
2023-01-27T01:42:04.380Z,96950.47
2023-01-27T01:44:30.817Z,96948.28
2023-01-27T01:46:57.322Z,96944.81
2023-01-27T01:49:23.860Z,96944.97
2023-01-27T01:51:50.357Z,96937.50
2023-01-27T01:54:16.899Z,96929.88
2023-01-27T01:56:43.330Z,96931.19
2023-01-27T01:59:09.822Z,96927.06
2023-01-27T02:01:36.236Z,96930.53
2023-01-27T02:04:02.698Z,96931.72
2023-01-27T02:06:29.166Z,96926.88
2023-01-27T02:08:55.734Z,96925.38
2023-01-27T02:11:22.198Z,96923.25
2023-01-27T02:13:48.665Z,96925.75
2023-01-27T02:16:15.207Z,96927.41
2023-01-27T02:18:41.744Z,96917.09
2023-01-27T02:21:08.205Z,96923.88
2023-01-27T02:23:40.358Z,96920.41
2023-01-27T02:26:06.850Z,96924.06
2023-01-27T02:28:33.271Z,96930.56
2023-01-27T02:30:59.747Z,96930.84
2023-01-27T02:33:26.248Z,96935.00
2023-01-27T02:35:52.646Z,96932.66
2023-01-27T02:38:19.083Z,96933.66
2023-01-27T02:40:45.523Z,96932.66
2023-01-27T02:43:12.003Z,96926.03
2023-01-27T02:45:38.550Z,96931.34
2023-01-27T02:48:06.008Z,96933.16
2023-01-27T02:50:32.384Z,96927.03
2023-01-27T02:52:58.781Z,96926.16
2023-01-27T02:55:25.232Z,96925.34
2023-01-27T02:57:51.724Z,96925.84
2023-01-27T03:00:18.153Z,96929.66
2023-01-27T03:02:44.699Z,96920.38
2023-01-27T03:05:11.723Z,96926.34
2023-01-27T03:07:38.340Z,96912.25
2023-01-27T03:10:04.875Z,96917.56
2023-01-27T03:12:31.282Z,96917.22
2023-01-27T03:14:57.706Z,96913.75
2023-01-27T03:17:24.117Z,96913.41
2023-01-27T03:19:50.583Z,96916.56
2023-01-27T03:22:16.991Z,96905.09
2023-01-27T03:24:43.515Z,96919.88
2023-01-27T03:27:09.996Z,96906.06
2023-01-27T03:29:37.373Z,96912.34
2023-01-27T03:32:03.780Z,96912.31
2023-01-27T03:34:30.164Z,96905.16
2023-01-27T03:36:56.545Z,96911.00
2023-01-27T03:39:31.878Z,96911.97
2023-01-27T03:41:58.357Z,96910.63
2023-01-27T03:44:24.811Z,96903.38
2023-01-27T03:46:51.261Z,96905.69
2023-01-27T03:49:17.681Z,96901.91
2023-01-27T03:51:44.113Z,96908.88
2023-01-27T03:54:11.590Z,96910.00
2023-01-27T03:56:38.048Z,96912.66
2023-01-27T03:59:04.596Z,96913.66
2023-01-27T04:01:31.135Z,96916.47
2023-01-27T04:03:57.670Z,96918.94
2023-01-27T04:06:24.092Z,96919.31
2023-01-27T04:08:50.539Z,96916.66
2023-01-27T04:11:17.251Z,96920.94
2023-01-27T04:13:44.754Z,96921.13
2023-01-27T04:16:11.265Z,96920.47
2023-01-27T04:18:37.801Z,96919.78
2023-01-27T04:21:04.262Z,96930.22
2023-01-27T04:23:30.716Z,96924.78
2023-01-27T04:25:57.128Z,96923.59
2023-01-27T04:28:41.811Z,96920.97
2023-01-27T04:31:09.946Z,96915.34
2023-01-27T04:33:36.426Z,96920.31
2023-01-27T04:36:02.855Z,96914.72
2023-01-27T04:38:29.469Z,96919.00
2023-01-27T04:40:55.928Z,96914.72
2023-01-27T04:43:22.369Z,96923.00
2023-01-27T04:45:48.832Z,96912.41
2023-01-27T04:48:15.312Z,96916.34
2023-01-27T04:50:41.801Z,96908.06
2023-01-27T04:53:08.245Z,96917.38
2023-01-27T04:55:34.777Z,96908.41
2023-01-27T04:58:01.481Z,96906.94
2023-01-27T05:00:27.957Z,96906.59
2023-01-27T05:02:54.430Z,96915.22
2023-01-27T05:05:20.904Z,96913.06
2023-01-27T05:07:47.321Z,96914.88
2023-01-27T05:10:13.685Z,96912.53
2023-01-27T05:12:40.302Z,96912.22
2023-01-27T05:15:06.701Z,96910.91
2023-01-27T05:17:33.146Z,96915.50
2023-01-27T05:19:59.561Z,96914.69
2023-01-27T05:22:26.079Z,96909.72
2023-01-27T05:24:52.554Z,96915.50
2023-01-27T05:27:18.965Z,96914.00
2023-01-27T05:29:45.608Z,96929.75
2023-01-27T05:32:12.105Z,96922.41
2023-01-27T05:34:38.606Z,96924.25
2023-01-27T05:37:05.059Z,96919.94
2023-01-27T05:39:31.502Z,96915.63
2023-01-27T05:41:57.954Z,96910.63
2023-01-27T05:44:24.361Z,96906.34
2023-01-27T05:46:50.758Z,96906.00
2023-01-27T05:49:17.288Z,96909.63
2023-01-27T05:51:43.666Z,96914.44
2023-01-27T05:54:10.354Z,96912.75
2023-01-27T05:56:36.711Z,96920.22
2023-01-27T05:59:10.433Z,96910.91
2023-01-27T06:01:36.951Z,96917.31
2023-01-27T06:04:08.572Z,96917.63
2023-01-27T06:06:34.998Z,96922.78
2023-01-27T06:09:02.438Z,96915.66
2023-01-27T06:11:28.946Z,96914.50
2023-01-27T06:13:55.411Z,96917.47
2023-01-27T06:16:21.813Z,96916.97
2023-01-27T06:18:48.236Z,96919.47
2023-01-27T06:21:14.589Z,96918.63
2023-01-27T06:23:41.009Z,96921.44
2023-01-27T06:26:07.424Z,96920.59
2023-01-27T06:28:33.820Z,96924.44
2023-01-27T06:31:00.413Z,96930.56
2023-01-27T06:33:26.798Z,96931.72
2023-01-27T06:35:53.216Z,96931.38
2023-01-27T06:38:20.113Z,96923.41
2023-01-27T06:40:46.500Z,96931.03
2023-01-27T06:43:12.953Z,96928.41
2023-01-27T06:45:39.308Z,96937.53
2023-01-27T06:48:05.702Z,96933.22
2023-01-27T06:50:32.258Z,96935.53
2023-01-27T06:52:58.654Z,96929.75
2023-01-27T06:55:34.171Z,96927.91
2023-01-27T06:58:04.873Z,96933.38
2023-01-27T07:00:31.453Z,96935.22
2023-01-27T07:02:57.841Z,96931.09
2023-01-27T07:05:24.433Z,96935.38
2023-01-27T07:07:50.806Z,96926.94
2023-01-27T07:10:17.219Z,96932.41
2023-01-27T07:12:43.609Z,96932.56
2023-01-27T07:15:10.022Z,96939.09
2023-01-27T07:17:36.429Z,96930.19
2023-01-27T07:20:03.037Z,96924.88
2023-01-27T07:22:29.954Z,96928.66
2023-01-27T07:25:00.627Z,96925.66
2023-01-27T07:30:11.793Z,96937.41
2023-01-27T07:32:38.330Z,96938.41
2023-01-27T07:35:04.827Z,96933.72
2023-01-27T07:37:31.243Z,96937.84
2023-01-27T07:39:57.627Z,96945.81
2023-01-27T07:42:24.031Z,96945.69
2023-01-27T07:44:50.503Z,96937.28
2023-01-27T07:47:16.986Z,96937.66
2023-01-27T07:49:43.430Z,96939.81
2023-01-27T07:52:09.792Z,96930.56
2023-01-27T07:54:36.138Z,96938.03
2023-01-27T07:57:02.752Z,96933.41
2023-01-27T07:59:38.228Z,96934.94
2023-01-27T08:02:05.674Z,96937.09
2023-01-27T08:04:40.196Z,96936.59
2023-01-27T08:07:17.389Z,96937.97
2023-01-27T08:09:43.820Z,96935.31
2023-01-27T08:14:51.541Z,96944.41
2023-01-27T08:17:17.982Z,96942.06
2023-01-27T08:19:44.405Z,96938.59
2023-01-27T08:22:10.857Z,96937.44
2023-01-27T08:24:37.312Z,96934.78
2023-01-27T08:27:03.906Z,96939.09
2023-01-27T08:29:30.770Z,96948.03
2023-01-27T08:31:57.365Z,96936.78
2023-01-27T08:34:23.803Z,96928.16
2023-01-27T08:36:50.156Z,96944.88
2023-01-27T08:39:16.538Z,96944.75
2023-01-27T08:41:42.994Z,96946.44
2023-01-27T08:44:09.441Z,96951.75
2023-01-27T08:46:35.976Z,96953.38
2023-01-27T08:49:02.452Z,96957.03
2023-01-27T08:51:28.984Z,96957.34
2023-01-27T08:53:55.419Z,96952.03
2023-01-27T08:56:21.831Z,96963.97
2023-01-27T08:58:48.415Z,96969.59
2023-01-27T09:01:14.950Z,96968.78
2023-01-27T09:03:41.400Z,96970.28
2023-01-27T09:06:07.845Z,96971.59
2023-01-27T09:08:34.291Z,96959.69
2023-01-27T09:11:00.675Z,96961.22
2023-01-27T09:13:27.127Z,96963.03
2023-01-27T09:15:53.589Z,96968.69
2023-01-27T09:18:20.044Z,96975.16
2023-01-27T09:20:46.402Z,96975.00
2023-01-27T09:23:12.747Z,96978.66
2023-01-27T09:28:19.533Z,96965.28
2023-01-27T09:30:46.506Z,96968.78
2023-01-27T09:33:15.564Z,96974.91
2023-01-27T09:35:42.061Z,96980.41
2023-01-27T09:38:08.534Z,96980.91
2023-01-27T09:40:34.978Z,96987.38
2023-01-27T09:43:01.358Z,96980.28
2023-01-27T09:45:27.795Z,96966.69
2023-01-27T09:47:54.206Z,96965.66
2023-01-27T09:50:20.678Z,96965.50
2023-01-27T09:52:48.227Z,96957.53
2023-01-27T09:55:19.097Z,96961.00
2023-01-27T09:57:45.588Z,96970.66
2023-01-27T10:00:12.348Z,96979.31
2023-01-27T10:02:39.175Z,96979.81
2023-01-27T10:05:05.593Z,96973.81
2023-01-27T10:07:32.120Z,96986.13
2023-01-27T10:09:58.571Z,96977.34
2023-01-27T10:12:27.166Z,96983.97
2023-01-27T10:14:53.636Z,96980.50
2023-01-27T10:17:20.463Z,96972.84
2023-01-27T10:19:54.777Z,96972.84
2023-01-27T10:22:25.044Z,96981.97
2023-01-27T10:24:54.010Z,96984.66
2023-01-27T10:27:24.825Z,96985.78
2023-01-27T10:29:51.604Z,96984.47
2023-01-27T10:32:18.035Z,96983.81
2023-01-27T10:34:52.250Z,96982.13
2023-01-27T10:37:19.299Z,96978.66
2023-01-27T10:39:47.265Z,96968.84
2023-01-27T10:45:05.147Z,96957.91
2023-01-27T10:47:36.019Z,96953.94
2023-01-27T10:50:02.482Z,96950.66
2023-01-27T10:52:28.883Z,96933.69
2023-01-27T10:54:55.407Z,96932.06
2023-01-27T10:57:21.850Z,96932.88
2023-01-27T11:00:10.967Z,96933.38
2023-01-27T11:02:34.680Z,96937.84
2023-01-27T11:05:01.115Z,96943.34
2023-01-27T11:07:27.551Z,96936.00
2023-01-27T11:09:54.006Z,96936.00
2023-01-27T11:12:21.757Z,96931.72
2023-01-27T11:14:48.212Z,96925.91
2023-01-27T11:17:14.590Z,96935.22
2023-01-27T11:19:41.018Z,96918.94
2023-01-27T11:22:09.029Z,96913.44
2023-01-27T11:24:35.697Z,96924.06
2023-01-27T11:27:02.186Z,96923.91
2023-01-27T11:29:28.681Z,96914.28
2023-01-27T11:31:55.317Z,96907.16
2023-01-27T11:34:21.861Z,96907.44
2023-01-27T11:36:50.799Z,96917.09
2023-01-27T11:39:17.162Z,96904.16
2023-01-27T11:41:43.667Z,96907.13
2023-01-27T11:44:10.209Z,96908.78
2023-01-27T11:46:36.687Z,96900.34
2023-01-27T11:49:03.625Z,96889.88
2023-01-27T11:51:30.081Z,96882.38
2023-01-27T11:53:56.565Z,96882.03
2023-01-27T11:56:23.016Z,96882.88
2023-01-27T11:58:49.519Z,96880.53
2023-01-27T12:01:17.700Z,96870.41
2023-01-27T12:03:45.177Z,96875.22
2023-01-27T12:06:11.589Z,96873.06
2023-01-27T12:08:38.081Z,96874.22
2023-01-27T12:11:04.520Z,96876.56
2023-01-27T12:13:31.029Z,96877.41
2023-01-27T12:15:57.520Z,96873.44
2023-01-27T12:18:23.988Z,96874.13
2023-01-27T12:20:50.419Z,96868.28
2023-01-27T12:23:16.807Z,96859.50
2023-01-27T12:25:43.492Z,96863.63
2023-01-27T12:28:10.355Z,96858.31
2023-01-27T12:30:36.832Z,96853.50
2023-01-27T12:33:03.269Z,96849.50
2023-01-27T12:35:29.746Z,96843.34
2023-01-27T12:37:56.201Z,96847.84
2023-01-27T12:40:22.714Z,96841.38
2023-01-27T12:42:49.100Z,96836.06
2023-01-27T12:45:15.533Z,96837.06
2023-01-27T12:47:42.075Z,96836.41
2023-01-27T12:50:08.489Z,96832.56
2023-01-27T12:52:34.921Z,96837.22
2023-01-27T12:55:01.345Z,96835.38
2023-01-27T12:57:27.812Z,96837.34
2023-01-27T12:59:54.291Z,96840.81
2023-01-27T13:02:20.823Z,96842.09
2023-01-27T13:04:47.324Z,96837.94
2023-01-27T13:07:13.769Z,96826.28
2023-01-27T13:09:40.266Z,96835.41
2023-01-27T13:12:06.740Z,96831.06
2023-01-27T13:14:33.426Z,96833.56
2023-01-27T13:16:59.830Z,96829.59
2023-01-27T13:19:26.337Z,96832.19
2023-01-27T13:21:52.760Z,96836.19
2023-01-27T13:24:19.207Z,96839.38
2023-01-27T13:26:45.687Z,96839.03
2023-01-27T13:29:12.089Z,96844.50
2023-01-27T13:31:38.642Z,96846.19
2023-01-27T13:34:05.174Z,96851.16
2023-01-27T13:36:31.873Z,96849.47
2023-01-27T13:39:02.317Z,96839.06
2023-01-27T13:41:32.919Z,96842.03
2023-01-27T13:43:59.366Z,96836.81
2023-01-27T13:46:26.292Z,96837.31
2023-01-27T13:49:02.550Z,96836.81
2023-01-27T13:51:29.047Z,96832.16
2023-01-27T13:56:47.521Z,96833.09
2023-01-27T13:59:14.310Z,96827.59
2023-01-27T14:01:46.056Z,96831.28
2023-01-27T14:04:12.515Z,96831.09
2023-01-27T14:06:38.974Z,96829.09
2023-01-27T14:09:05.407Z,96833.38
2023-01-27T14:11:31.831Z,96835.56
2023-01-27T14:13:58.272Z,96835.66
2023-01-27T14:16:24.663Z,96830.34
2023-01-27T14:18:51.137Z,96834.13
2023-01-27T14:21:19.554Z,96841.28
2023-01-27T14:23:49.389Z,96851.25
2023-01-27T14:26:16.139Z,96840.97
2023-01-27T14:28:42.592Z,96836.59
2023-01-27T14:31:09.133Z,96836.59
2023-01-27T14:33:35.634Z,96839.00
2023-01-27T14:36:02.089Z,96844.53
2023-01-27T14:38:28.540Z,96836.22
2023-01-27T14:40:54.955Z,96836.91
2023-01-27T14:43:21.355Z,96834.44
2023-01-27T14:45:47.810Z,96841.84
2023-01-27T14:48:14.268Z,96841.41
2023-01-27T14:50:40.719Z,96846.03
2023-01-27T14:53:07.137Z,96851.53
2023-01-27T14:55:33.602Z,96852.09
2023-01-27T14:58:00.046Z,96855.69
2023-01-27T15:00:26.568Z,96854.88
2023-01-27T15:02:53.030Z,96859.75
2023-01-27T15:05:19.543Z,96856.72
2023-01-27T15:07:46.038Z,96864.22
2023-01-27T15:10:12.563Z,96861.38
2023-01-27T15:12:39.058Z,96866.69
2023-01-27T15:15:05.668Z,96873.41
2023-01-27T15:17:32.121Z,96874.03
2023-01-27T15:19:58.561Z,96878.84
2023-01-27T15:25:05.344Z,96870.69
2023-01-27T15:27:31.796Z,96881.41
2023-01-27T15:29:58.266Z,96883.06
2023-01-27T15:32:24.761Z,96877.97
2023-01-27T15:34:51.232Z,96882.94
2023-01-27T15:37:17.713Z,96882.31
2023-01-27T15:39:46.376Z,96879.50
2023-01-27T15:42:14.463Z,96888.94
2023-01-27T15:44:41.444Z,96893.72
2023-01-27T15:47:07.880Z,96896.22
2023-01-27T15:49:41.854Z,96893.00
2023-01-27T15:52:09.032Z,96896.53
2023-01-27T15:54:36.630Z,96895.50
2023-01-27T15:57:06.018Z,96898.38
2023-01-27T15:59:40.386Z,96902.13
2023-01-27T16:02:08.660Z,96903.66
2023-01-27T16:04:35.069Z,96898.34
2023-01-27T16:07:01.726Z,96898.81
2023-01-27T16:09:28.186Z,96908.44
2023-01-27T16:11:54.637Z,96911.09
2023-01-27T16:14:21.113Z,96917.28
2023-01-27T16:16:47.679Z,96906.28
2023-01-27T16:19:14.115Z,96913.41
2023-01-27T16:21:40.579Z,96910.59
2023-01-27T16:24:07.006Z,96915.94
2023-01-27T16:26:33.454Z,96917.09
2023-01-27T16:28:59.974Z,96923.41
2023-01-27T16:31:26.478Z,96930.28
2023-01-27T16:34:09.482Z,96930.63
2023-01-27T16:36:35.965Z,96929.94
2023-01-27T16:39:04.225Z,96924.69
2023-01-27T16:41:31.141Z,96926.22
2023-01-27T16:43:57.716Z,96930.22
2023-01-27T16:46:24.096Z,96932.75
2023-01-27T16:48:50.513Z,96934.41
2023-01-27T16:51:16.983Z,96929.28
2023-01-27T16:53:43.446Z,96927.78
2023-01-27T16:56:09.874Z,96937.59
2023-01-27T16:58:46.247Z,96944.28
2023-01-27T17:01:14.190Z,96941.09
2023-01-27T17:03:40.807Z,96937.97
2023-01-27T17:06:07.301Z,96943.47
2023-01-27T17:08:33.836Z,96944.94
2023-01-27T17:11:00.355Z,96941.13
2023-01-27T17:13:26.876Z,96949.00
2023-01-27T17:15:55.537Z,96949.66
2023-01-27T17:21:12.566Z,96955.16
2023-01-27T17:23:40.300Z,96956.13
2023-01-27T17:26:06.801Z,96959.81
2023-01-27T17:28:36.337Z,96965.13
2023-01-27T17:31:04.767Z,96968.78
2023-01-27T17:33:32.573Z,96966.31
2023-01-27T17:35:59.015Z,96975.28
2023-01-27T17:38:25.528Z,96978.78
2023-01-27T17:40:52.096Z,96993.88
2023-01-27T17:43:18.570Z,97000.69
2023-01-27T17:45:45.074Z,96996.38
2023-01-27T17:48:11.534Z,96999.72
2023-01-27T17:50:37.990Z,97001.56
2023-01-27T17:53:04.444Z,97000.06
2023-01-27T17:55:30.954Z,97004.22
2023-01-27T17:57:57.408Z,97003.34
2023-01-27T18:00:33.416Z,97007.34
2023-01-27T18:03:00.052Z,97005.72
2023-01-27T18:05:27.336Z,97010.88
2023-01-27T18:07:56.613Z,97014.34
2023-01-27T18:10:23.119Z,97012.19
2023-01-27T18:12:49.653Z,97015.19
2023-01-27T18:15:16.086Z,97015.03
2023-01-27T18:17:42.603Z,97015.19
2023-01-27T18:20:09.058Z,97010.56
2023-01-27T18:22:35.532Z,97010.53
2023-01-27T18:25:02.039Z,97017.69
2023-01-27T18:27:28.638Z,97020.16
2023-01-27T18:29:55.089Z,97018.00
2023-01-27T18:32:21.558Z,97022.50
2023-01-27T18:34:49.022Z,97024.69
2023-01-27T18:37:15.547Z,97031.50
2023-01-27T18:39:42.041Z,97019.19
2023-01-27T18:42:09.532Z,97027.16
2023-01-27T18:44:36.059Z,97024.97
2023-01-27T18:47:02.553Z,97029.13
2023-01-27T18:49:29.114Z,97023.47
2023-01-27T18:51:55.630Z,97022.19
2023-01-27T18:54:22.104Z,97029.31
2023-01-27T18:56:48.598Z,97033.63
2023-01-27T18:59:15.156Z,97027.63
2023-01-27T19:01:41.688Z,97031.97
2023-01-27T19:04:09.150Z,97037.63
2023-01-27T19:06:35.607Z,97036.97
2023-01-27T19:09:02.069Z,97038.78
2023-01-27T19:11:28.634Z,97043.44
2023-01-27T19:13:55.091Z,97040.44
2023-01-27T19:16:21.564Z,97043.97
2023-01-27T19:18:48.000Z,97042.47
2023-01-27T19:21:14.527Z,97045.47
2023-01-27T19:23:40.950Z,97050.78
2023-01-27T19:26:07.390Z,97058.75
2023-01-27T19:28:33.751Z,97050.94
2023-01-27T19:31:00.344Z,97057.25
2023-01-27T19:33:26.813Z,97051.94
2023-01-27T19:35:53.210Z,97061.22
2023-01-27T19:38:19.646Z,97063.38
2023-01-27T19:40:46.011Z,97067.22
2023-01-27T19:43:12.363Z,97069.38
2023-01-27T19:45:38.728Z,97073.00
2023-01-27T19:48:05.125Z,97070.84
2023-01-27T19:50:31.523Z,97071.34
2023-01-27T19:52:58.038Z,97070.53
2023-01-27T19:55:24.465Z,97076.47
2023-01-27T19:57:51.036Z,97076.16
2023-01-27T20:00:17.380Z,97077.84
2023-01-27T20:02:43.831Z,97080.16
2023-01-27T20:07:52.119Z,97086.47
2023-01-27T20:10:18.819Z,97091.97
2023-01-27T20:12:45.511Z,97094.63
2023-01-27T20:15:12.529Z,97091.97
2023-01-27T20:17:45.837Z,97096.94
2023-01-27T20:20:12.465Z,97101.09
2023-01-27T20:22:41.678Z,97093.28
2023-01-27T20:25:09.558Z,97087.63
2023-01-27T20:27:36.147Z,97094.44
2023-01-27T20:30:04.001Z,97096.13
2023-01-27T20:32:33.000Z,97095.63
2023-01-27T20:35:01.318Z,97099.78
2023-01-27T20:37:27.903Z,97099.78
2023-01-27T20:39:54.643Z,97099.09
2023-01-27T20:42:25.380Z,97106.59
2023-01-27T20:44:55.541Z,97107.88
2023-01-27T20:47:24.091Z,97109.56
2023-01-27T20:49:58.248Z,97111.41
2023-01-27T20:52:29.527Z,97115.03
2023-01-27T20:54:58.090Z,97113.06
2023-01-27T20:57:26.238Z,97112.22
2023-01-27T20:59:54.527Z,97113.72
2023-01-27T21:02:25.459Z,97110.25
2023-01-27T21:04:52.193Z,97107.75
2023-01-27T21:07:22.243Z,97115.03
2023-01-27T21:09:50.437Z,97111.72
2023-01-27T21:12:17.156Z,97109.41
2023-01-27T21:14:44.778Z,97108.56
2023-01-27T21:19:51.905Z,97111.56
2023-01-27T21:22:18.592Z,97117.84
2023-01-27T21:24:45.387Z,97117.84
2023-01-27T21:30:00.891Z,97121.03
2023-01-27T21:32:27.503Z,97123.69
2023-01-27T21:34:55.294Z,97123.69
2023-01-27T21:37:22.869Z,97127.00
2023-01-27T21:39:49.613Z,97120.69
2023-01-27T21:42:16.397Z,97138.97
2023-01-27T21:44:43.032Z,97141.78
2023-01-27T21:47:09.535Z,97137.28
2023-01-27T21:49:36.123Z,97131.31
2023-01-27T21:52:02.657Z,97130.50
2023-01-27T21:54:29.201Z,97124.00
2023-01-27T21:56:55.757Z,97126.00
2023-01-27T21:59:22.214Z,97129.00
2023-01-27T22:01:48.668Z,97128.50
2023-01-27T22:04:15.174Z,97132.66
2023-01-27T22:06:41.745Z,97125.50
2023-01-27T22:09:08.166Z,97116.22
2023-01-27T22:11:34.617Z,97122.50
2023-01-27T22:14:01.008Z,97110.72
2023-01-27T22:16:27.572Z,97122.50
2023-01-27T22:18:54.108Z,97113.22
2023-01-27T22:21:20.615Z,97117.03
2023-01-27T22:23:47.062Z,97113.56
2023-01-27T22:26:13.494Z,97112.72
2023-01-27T22:28:39.896Z,97104.72
2023-01-27T22:31:06.431Z,97107.53
2023-01-27T22:33:40.960Z,97107.53
2023-01-27T22:36:07.461Z,97113.19
2023-01-27T22:38:33.914Z,97115.19
2023-01-27T22:41:00.254Z,97110.69
2023-01-27T22:43:26.640Z,97108.00
2023-01-27T22:45:53.260Z,97112.00
2023-01-27T22:48:25.833Z,97106.69
2023-01-27T22:50:52.282Z,97108.19
2023-01-27T22:53:18.743Z,97111.03
2023-01-27T22:55:45.090Z,97115.16
2023-01-27T22:58:11.580Z,97115.75
2023-01-27T23:00:37.967Z,97121.69
2023-01-27T23:03:04.428Z,97115.56
2023-01-27T23:05:30.888Z,97114.09
2023-01-27T23:07:57.431Z,97112.59
2023-01-27T23:10:23.978Z,97116.91
2023-01-27T23:12:50.365Z,97107.47
2023-01-27T23:15:17.087Z,97101.38
2023-01-27T23:17:43.792Z,97100.88
2023-01-27T23:20:10.270Z,97109.19
2023-01-27T23:22:42.799Z,97098.41
2023-01-27T23:25:09.194Z,97102.88
2023-01-27T23:27:35.819Z,97102.88
2023-01-27T23:30:02.348Z,97106.38
2023-01-27T23:32:28.807Z,97099.38
2023-01-27T23:34:58.239Z,97100.38
2023-01-27T23:37:24.721Z,97104.34
2023-01-27T23:39:56.194Z,97106.34
2023-01-27T23:42:23.042Z,97111.31
2023-01-27T23:44:53.850Z,97113.31
2023-01-27T23:47:20.472Z,97109.97
2023-01-27T23:49:47.039Z,97115.28
2023-01-27T23:52:14.447Z,97119.75
2023-01-27T23:54:40.878Z,97114.41
2023-01-27T23:57:07.458Z,97121.41
2023-01-27T23:59:33.936Z,97118.09
